createdAt,value
2022-09-16T00:00:07.960Z,98635.36
2022-09-16T00:03:00.544Z,98637.07
2022-09-16T00:05:40.316Z,98642.27
2022-09-16T00:08:12.748Z,98641.20
2022-09-16T00:10:45.037Z,98643.95
2022-09-16T00:13:20.279Z,98647.34
2022-09-16T00:15:53.256Z,98647.33
2022-09-16T00:18:25.293Z,98651.77
2022-09-16T00:20:57.367Z,98655.20
2022-09-16T00:23:30.018Z,98660.29
2022-09-16T00:26:08.078Z,98658.01
2022-09-16T00:28:40.875Z,98656.19
2022-09-16T00:31:15.621Z,98658.95
2022-09-16T00:33:47.903Z,98656.48
2022-09-16T00:36:23.876Z,98654.44
2022-09-16T00:38:57.087Z,98654.59
2022-09-16T00:41:33.428Z,98658.86
2022-09-16T00:44:28.874Z,98663.06
2022-09-16T00:47:03.420Z,98661.35
2022-09-16T00:49:35.740Z,98660.23
2022-09-16T00:52:09.819Z,98659.77
2022-09-16T00:54:43.602Z,98659.75
2022-09-16T00:57:17.168Z,98661.07
2022-09-16T00:59:55.599Z,98663.83
2022-09-16T01:02:28.858Z,98664.45
2022-09-16T01:05:06.906Z,98666.93
2022-09-16T01:07:44.149Z,98666.63
2022-09-16T01:10:22.723Z,98669.73
2022-09-16T01:12:59.262Z,98669.91
2022-09-16T01:15:38.494Z,98667.55
2022-09-16T01:18:21.203Z,98661.30
2022-09-16T01:21:13.342Z,98664.73
2022-09-16T01:24:08.665Z,98662.94
2022-09-16T01:27:11.865Z,98670.60
2022-09-16T01:30:07.069Z,98669.66
2022-09-16T01:32:51.056Z,98670.71
2022-09-16T01:35:31.232Z,98674.14
2022-09-16T01:38:11.727Z,98675.52
2022-09-16T01:40:54.154Z,98672.49
2022-09-16T01:43:35.860Z,98670.14
2022-09-16T01:46:21.998Z,98670.80
2022-09-16T01:49:00.403Z,98670.27
2022-09-16T01:51:39.850Z,98669.01
2022-09-16T01:54:20.871Z,98667.35
2022-09-16T01:57:02.097Z,98667.64
2022-09-16T01:59:44.534Z,98665.77
2022-09-16T02:02:21.221Z,98663.47
2022-09-16T02:04:56.430Z,98664.68
2022-09-16T02:07:33.842Z,98660.73
2022-09-16T02:10:16.428Z,98662.66
2022-09-16T02:12:51.792Z,98662.45
2022-09-16T02:15:27.826Z,98662.06
2022-09-16T02:18:05.663Z,98658.63
2022-09-16T02:20:42.844Z,98665.59
2022-09-16T02:23:20.118Z,98662.81
2022-09-16T02:25:54.665Z,98661.05
2022-09-16T02:28:32.454Z,98655.89
2022-09-16T02:31:07.854Z,98651.98
2022-09-16T02:33:46.607Z,98656.75
2022-09-16T02:36:24.275Z,98657.58
2022-09-16T02:39:01.740Z,98661.95
2022-09-16T02:41:34.082Z,98658.91
2022-09-16T02:44:07.055Z,98660.69
2022-09-16T02:46:49.635Z,98663.02
2022-09-16T02:49:28.102Z,98666.18
2022-09-16T02:52:07.283Z,98665.75
2022-09-16T02:54:45.246Z,98663.83
2022-09-16T02:57:17.981Z,98663.90
2022-09-16T02:59:50.709Z,98666.39
2022-09-16T03:02:22.967Z,98665.13
2022-09-16T03:04:55.339Z,98665.59
2022-09-16T03:07:27.862Z,98666.41
2022-09-16T03:10:00.236Z,98666.80
2022-09-16T03:12:52.312Z,98670.10
2022-09-16T03:15:45.809Z,98670.90
2022-09-16T03:18:34.145Z,98676.05
2022-09-16T03:21:14.940Z,98674.00
2022-09-16T03:23:57.927Z,98672.07
2022-09-16T03:26:39.707Z,98674.67
2022-09-16T03:29:19.842Z,98680.67
2022-09-16T03:31:59.450Z,98678.42
2022-09-16T03:34:36.596Z,98674.55
2022-09-16T03:37:15.253Z,98677.77
2022-09-16T03:39:53.638Z,98673.33
2022-09-16T03:42:25.754Z,98671.60
2022-09-16T03:44:57.954Z,98672.77
2022-09-16T03:47:30.074Z,98669.58
2022-09-16T03:50:03.150Z,98670.23
2022-09-16T03:52:35.168Z,98670.61
2022-09-16T03:55:08.603Z,98668.29
2022-09-16T03:57:40.677Z,98667.30
2022-09-16T04:00:16.373Z,98668.78
2022-09-16T04:02:48.671Z,98669.25
2022-09-16T04:05:20.811Z,98672.54
2022-09-16T04:07:53.167Z,98677.19
2022-09-16T04:10:25.360Z,98674.95
2022-09-16T04:13:00.701Z,98680.45
2022-09-16T04:15:35.054Z,98684.50
2022-09-16T04:18:07.416Z,98683.18
2022-09-16T04:20:40.231Z,98681.64
2022-09-16T04:23:12.880Z,98687.20
2022-09-16T04:25:44.974Z,98685.17
2022-09-16T04:28:17.044Z,98681.48
2022-09-16T04:30:49.225Z,98683.96
2022-09-16T04:33:22.197Z,98687.97
2022-09-16T04:35:54.275Z,98686.97
2022-09-16T04:38:26.493Z,98689.05
2022-09-16T04:41:04.467Z,98683.52
2022-09-16T04:43:36.736Z,98691.09
2022-09-16T04:46:09.751Z,98693.81
2022-09-16T04:48:42.190Z,98693.59
2022-09-16T04:51:16.719Z,98692.32
2022-09-16T04:54:13.848Z,98687.65
2022-09-16T04:56:46.974Z,98698.19
2022-09-16T04:59:19.012Z,98699.60
2022-09-16T05:01:51.828Z,98699.23
2022-09-16T05:04:24.356Z,98694.52
2022-09-16T05:06:56.529Z,98701.68
2022-09-16T05:09:28.901Z,98701.52
2022-09-16T05:12:01.128Z,98699.55
2022-09-16T05:14:35.630Z,98701.73
2022-09-16T05:17:08.272Z,98699.05
2022-09-16T05:19:40.417Z,98702.16
2022-09-16T05:22:12.502Z,98703.89
2022-09-16T05:24:45.260Z,98698.01
2022-09-16T05:27:17.513Z,98696.50
2022-09-16T05:29:50.086Z,98697.70
2022-09-16T05:32:22.383Z,98694.23
2022-09-16T05:34:54.988Z,98697.98
2022-09-16T05:37:29.493Z,98700.14
2022-09-16T05:40:01.699Z,98698.40
2022-09-16T05:42:34.087Z,98695.15
2022-09-16T05:45:21.526Z,98693.36
2022-09-16T05:47:57.950Z,98688.98
2022-09-16T05:50:30.202Z,98684.95
2022-09-16T05:53:02.503Z,98692.13
2022-09-16T05:55:34.714Z,98699.27
2022-09-16T05:58:07.092Z,98694.88
2022-09-16T06:00:39.387Z,98691.69
2022-09-16T06:03:14.300Z,98687.10
2022-09-16T06:05:48.153Z,98688.75
2022-09-16T06:08:20.295Z,98684.40
2022-09-16T06:10:56.204Z,98682.54
2022-09-16T06:13:31.802Z,98683.51
2022-09-16T06:16:08.035Z,98689.18
2022-09-16T06:18:40.718Z,98689.27
2022-09-16T06:21:13.576Z,98690.37
2022-09-16T06:23:46.261Z,98692.62
2022-09-16T06:26:21.061Z,98696.86
2022-09-16T06:28:53.620Z,98699.15
2022-09-16T06:31:29.939Z,98698.67
2022-09-16T06:34:03.430Z,98700.98
2022-09-16T06:36:42.772Z,98702.48
2022-09-16T06:39:23.173Z,98702.55
2022-09-16T06:42:01.184Z,98705.51
2022-09-16T06:44:35.001Z,98708.77
2022-09-16T06:47:07.205Z,98710.95
2022-09-16T06:49:39.340Z,98710.58
2022-09-16T06:52:12.056Z,98708.77
2022-09-16T06:54:44.118Z,98707.86
2022-09-16T06:57:16.569Z,98710.95
2022-09-16T06:59:48.696Z,98703.92
2022-09-16T07:02:21.518Z,98707.24
2022-09-16T07:04:56.376Z,98712.02
2022-09-16T07:07:26.949Z,98706.64
2022-09-16T07:09:59.269Z,98712.67
2022-09-16T07:12:32.442Z,98707.02
2022-09-16T07:15:04.663Z,98713.94
2022-09-16T07:17:38.844Z,98711.13
2022-09-16T07:20:12.178Z,98711.29
2022-09-16T07:22:50.933Z,98713.29
2022-09-16T07:25:35.494Z,98713.29
2022-09-16T07:28:08.023Z,98708.86
2022-09-16T07:30:43.224Z,98712.36
2022-09-16T07:33:15.461Z,98713.88
2022-09-16T07:35:47.654Z,98716.02
2022-09-16T07:38:19.853Z,98718.16
2022-09-16T07:40:52.085Z,98719.13
2022-09-16T07:43:25.170Z,98715.39
2022-09-16T07:46:00.568Z,98717.58
2022-09-16T07:48:35.061Z,98715.88
2022-09-16T07:51:07.553Z,98708.05
2022-09-16T07:53:40.291Z,98701.33
2022-09-16T07:56:14.862Z,98707.36
2022-09-16T07:58:48.566Z,98706.80
2022-09-16T08:01:21.195Z,98704.64
2022-09-16T08:03:53.980Z,98708.38
2022-09-16T08:06:28.161Z,98704.80
2022-09-16T08:09:10.025Z,98704.36
2022-09-16T08:11:47.625Z,98703.20
2022-09-16T08:14:22.156Z,98704.58
2022-09-16T08:16:56.934Z,98699.66
2022-09-16T08:19:27.455Z,98704.44
2022-09-16T08:22:09.184Z,98704.50
2022-09-16T08:24:41.535Z,98712.08
2022-09-16T08:27:15.713Z,98704.33
2022-09-16T08:29:51.424Z,98703.42
2022-09-16T08:32:23.520Z,98701.55
2022-09-16T08:34:56.150Z,98702.19
2022-09-16T08:37:28.727Z,98704.16
2022-09-16T08:40:03.649Z,98706.61
2022-09-16T08:42:52.068Z,98704.77
2022-09-16T08:45:34.289Z,98704.37
2022-09-16T08:48:28.494Z,98702.56
2022-09-16T08:51:03.825Z,98702.20
2022-09-16T08:53:42.877Z,98696.17
2022-09-16T08:56:18.598Z,98696.86
2022-09-16T08:58:54.885Z,98695.50
2022-09-16T09:01:33.801Z,98693.48
2022-09-16T09:04:06.875Z,98693.79
2022-09-16T09:07:00.211Z,98693.11
2022-09-16T09:09:48.504Z,98697.77
2022-09-16T09:12:31.147Z,98696.00
2022-09-16T09:15:17.227Z,98695.80
2022-09-16T09:18:03.952Z,98693.79
2022-09-16T09:21:01.812Z,98692.25
2022-09-16T09:23:50.622Z,98694.42
2022-09-16T09:26:30.054Z,98686.70
2022-09-16T09:29:26.022Z,98686.39
2022-09-16T09:32:13.915Z,98691.06
2022-09-16T09:35:00.702Z,98690.67
2022-09-16T09:37:47.272Z,98688.91
2022-09-16T09:40:25.096Z,98688.05
2022-09-16T09:43:09.027Z,98687.65
2022-09-16T09:46:14.454Z,98684.31
2022-09-16T09:49:00.650Z,98692.67
2022-09-16T09:51:37.465Z,98694.58
2022-09-16T09:54:28.170Z,98691.40
2022-09-16T09:57:05.031Z,98697.13
2022-09-16T09:59:45.054Z,98698.19
2022-09-16T10:02:22.726Z,98700.17
2022-09-16T10:04:55.004Z,98705.56
2022-09-16T10:07:28.824Z,98707.05
2022-09-16T10:10:05.060Z,98710.95
2022-09-16T10:12:38.181Z,98708.84
2022-09-16T10:15:24.066Z,98706.29
2022-09-16T10:17:59.813Z,98704.75
2022-09-16T10:20:40.799Z,98702.42
2022-09-16T10:23:24.412Z,98703.09
2022-09-16T10:26:26.324Z,98701.23
2022-09-16T10:29:01.805Z,98699.35
2022-09-16T10:31:43.095Z,98707.13
2022-09-16T10:34:25.118Z,98704.98
2022-09-16T10:37:18.730Z,98707.84
2022-09-16T10:39:58.219Z,98710.92
2022-09-16T10:42:32.571Z,98713.83
2022-09-16T10:45:22.897Z,98712.83
2022-09-16T10:48:03.470Z,98716.48
2022-09-16T10:50:41.192Z,98706.80
2022-09-16T10:53:37.621Z,98711.90
2022-09-16T10:56:20.369Z,98709.99
2022-09-16T10:59:07.228Z,98703.56
2022-09-16T11:01:50.791Z,98702.77
2022-09-16T11:05:02.856Z,98705.33
2022-09-16T11:07:43.428Z,98710.63
2022-09-16T11:10:24.642Z,98715.30
2022-09-16T11:13:29.904Z,98711.27
2022-09-16T11:16:22.696Z,98706.67
2022-09-16T11:19:06.859Z,98712.05
2022-09-16T11:22:05.234Z,98714.80
2022-09-16T11:24:56.290Z,98712.70
2022-09-16T11:27:47.451Z,98718.01
2022-09-16T11:30:23.831Z,98712.00
2022-09-16T11:33:09.516Z,98708.82
2022-09-16T11:36:06.254Z,98715.09
2022-09-16T11:38:46.373Z,98706.14
2022-09-16T11:41:28.213Z,98704.89
2022-09-16T11:44:16.030Z,98696.80
2022-09-16T11:47:02.130Z,98701.83
2022-09-16T11:49:56.207Z,98697.05
2022-09-16T11:52:41.922Z,98701.42
2022-09-16T11:55:28.612Z,98704.46
2022-09-16T11:58:10.958Z,98705.05
2022-09-16T12:00:46.962Z,98702.70
2022-09-16T12:03:43.777Z,98701.42
2022-09-16T12:06:20.494Z,98699.63
2022-09-16T12:09:03.708Z,98699.85
2022-09-16T12:11:43.010Z,98698.86
2022-09-16T12:14:19.979Z,98696.21
2022-09-16T12:16:55.877Z,98700.91
2022-09-16T12:19:35.056Z,98692.66
2022-09-16T12:22:16.784Z,98693.11
2022-09-16T12:24:57.936Z,98694.52
2022-09-16T12:27:49.094Z,98695.98
2022-09-16T12:30:40.314Z,98690.80
2022-09-16T12:33:22.743Z,98689.98
2022-09-16T12:36:01.130Z,98681.70
2022-09-16T12:38:33.464Z,98678.75
2022-09-16T12:41:27.064Z,98682.34
2022-09-16T12:44:36.095Z,98678.83
2022-09-16T12:47:35.498Z,98677.87
2022-09-16T12:50:37.646Z,98675.15
2022-09-16T12:53:46.646Z,98673.35
2022-09-16T12:56:35.169Z,98673.36
2022-09-16T12:59:35.542Z,98664.16
2022-09-16T13:02:17.663Z,98655.15
2022-09-16T13:04:54.706Z,98661.31
2022-09-16T13:07:38.128Z,98660.29
2022-09-16T13:10:40.421Z,98657.84
2022-09-16T13:13:27.014Z,98652.16
2022-09-16T13:16:01.130Z,98651.29
2022-09-16T13:18:45.515Z,98657.41
2022-09-16T13:21:29.783Z,98657.24
2022-09-16T13:24:12.551Z,98655.61
2022-09-16T13:26:46.849Z,98655.52
2022-09-16T13:29:42.173Z,98653.27
2022-09-16T13:32:44.441Z,98659.33
2022-09-16T13:35:39.115Z,98659.45
2022-09-16T13:38:41.669Z,98654.95
2022-09-16T13:41:15.732Z,98654.44
2022-09-16T13:43:56.812Z,98654.95
2022-09-16T13:46:37.153Z,98656.02
2022-09-16T13:49:23.373Z,98652.18
2022-09-16T13:51:56.095Z,98656.47
2022-09-16T13:55:10.478Z,98653.29
2022-09-16T13:58:08.625Z,98654.16
2022-09-16T14:00:52.336Z,98655.20
2022-09-16T14:03:44.102Z,98653.90
2022-09-16T14:06:35.097Z,98658.37
2022-09-16T14:09:17.220Z,98657.67
2022-09-16T14:16:16.893Z,98642.66
2022-09-16T14:16:36.532Z,98655.11
2022-09-16T14:19:00.581Z,98642.73
2022-09-16T14:21:35.978Z,98641.70
2022-09-16T14:24:20.772Z,98646.80
2022-09-16T14:26:58.183Z,98646.91
2022-09-16T14:29:30.292Z,98647.67
2022-09-16T14:32:14.748Z,98651.92
2022-09-16T14:35:15.752Z,98644.85
2022-09-16T14:37:58.621Z,98648.17
2022-09-16T14:40:33.892Z,98646.36
2022-09-16T14:43:08.513Z,98640.79
2022-09-16T14:45:45.997Z,98645.33
2022-09-16T14:48:20.137Z,98643.61
2022-09-16T14:50:55.559Z,98644.54
2022-09-16T14:53:36.485Z,98643.27
2022-09-16T14:56:21.445Z,98638.40
2022-09-16T14:58:54.311Z,98644.13
2022-09-16T15:01:30.832Z,98639.23
2022-09-16T15:04:08.441Z,98639.51
2022-09-16T15:06:47.822Z,98638.94
2022-09-16T15:09:27.286Z,98637.52
2022-09-16T15:12:01.958Z,98632.98
2022-09-16T15:14:43.110Z,98635.25
2022-09-16T15:17:21.142Z,98636.48
2022-09-16T15:19:59.380Z,98629.31
2022-09-16T15:22:31.851Z,98626.65
2022-09-16T15:25:04.768Z,98631.28
2022-09-16T15:27:37.049Z,98627.55
2022-09-16T15:30:26.231Z,98625.45
2022-09-16T15:32:58.523Z,98621.67
2022-09-16T15:35:33.604Z,98621.64
2022-09-16T15:38:22.604Z,98621.36
2022-09-16T15:41:05.622Z,98622.84
2022-09-16T15:43:41.087Z,98623.73
2022-09-16T15:46:22.247Z,98623.05
2022-09-16T15:48:56.872Z,98619.84
2022-09-16T15:51:35.317Z,98623.05
2022-09-16T15:54:22.195Z,98623.33
2022-09-16T15:57:02.557Z,98624.84
2022-09-16T15:59:44.396Z,98624.10
2022-09-16T16:02:27.661Z,98623.27
2022-09-16T16:05:11.088Z,98620.27
2022-09-16T16:08:07.506Z,98620.95
2022-09-16T16:10:45.249Z,98623.36
2022-09-16T16:13:17.497Z,98622.25
2022-09-16T16:15:50.756Z,98622.31
2022-09-16T16:18:22.851Z,98623.14
2022-09-16T16:20:54.948Z,98621.78
2022-09-16T16:23:27.055Z,98622.02
2022-09-16T16:25:59.699Z,98623.45
2022-09-16T16:28:32.025Z,98626.60
2022-09-16T16:31:16.519Z,98622.63
2022-09-16T16:33:49.692Z,98622.61
2022-09-16T16:36:23.213Z,98623.55
2022-09-16T16:38:55.437Z,98623.43
2022-09-16T16:41:27.980Z,98627.16
2022-09-16T16:44:00.125Z,98627.84
2022-09-16T16:46:32.362Z,98629.25
2022-09-16T16:49:05.186Z,98630.34
2022-09-16T16:51:37.325Z,98634.45
2022-09-16T16:54:09.689Z,98629.13
2022-09-16T16:56:41.958Z,98633.04
2022-09-16T16:59:14.505Z,98633.52
2022-09-16T17:01:52.064Z,98636.32
2022-09-16T17:04:25.004Z,98636.19
2022-09-16T17:07:21.518Z,98640.48
2022-09-16T17:09:58.792Z,98647.02
2022-09-16T17:12:31.013Z,98649.29
2022-09-16T17:15:04.582Z,98650.95
2022-09-16T17:17:36.896Z,98646.86
2022-09-16T17:20:27.916Z,98652.22
2022-09-16T17:23:02.780Z,98651.91
2022-09-16T17:25:37.449Z,98653.87
2022-09-16T17:28:10.351Z,98653.08
2022-09-16T17:30:45.858Z,98651.05
2022-09-16T17:33:20.593Z,98653.77
2022-09-16T17:36:07.189Z,98654.78
2022-09-16T17:38:39.428Z,98656.08
2022-09-16T17:41:14.075Z,98657.51
2022-09-16T17:43:53.198Z,98658.94
2022-09-16T17:46:27.903Z,98660.91
2022-09-16T17:49:04.323Z,98659.20
2022-09-16T17:51:37.401Z,98659.52
2022-09-16T17:54:11.215Z,98655.48
2022-09-16T17:56:44.257Z,98659.92
2022-09-16T17:59:19.409Z,98661.23
2022-09-16T18:01:51.154Z,98660.26
2022-09-16T18:04:26.006Z,98660.33
2022-09-16T18:07:00.794Z,98661.94
2022-09-16T18:09:33.188Z,98659.03
2022-09-16T18:12:09.638Z,98659.14
2022-09-16T18:14:41.795Z,98656.83
2022-09-16T18:17:14.127Z,98661.77
2022-09-16T18:19:46.306Z,98656.85
2022-09-16T18:22:20.669Z,98655.32
2022-09-16T18:24:52.940Z,98655.30
2022-09-16T18:27:25.765Z,98656.20
2022-09-16T18:29:58.134Z,98659.13
2022-09-16T18:32:31.465Z,98658.58
2022-09-16T18:35:13.044Z,98655.70
2022-09-16T18:37:45.394Z,98657.88
2022-09-16T18:40:18.528Z,98661.50
2022-09-16T18:42:51.190Z,98661.05
2022-09-16T18:45:23.610Z,98658.55
2022-09-16T18:47:56.595Z,98660.14
2022-09-16T18:50:30.327Z,98658.80
2022-09-16T18:53:03.047Z,98661.77
2022-09-16T18:55:35.954Z,98659.48
2022-09-16T18:58:08.248Z,98657.19
2022-09-16T19:00:40.342Z,98659.38
2022-09-16T19:03:12.602Z,98663.09
2022-09-16T19:05:44.959Z,98661.14
2022-09-16T19:08:17.333Z,98664.66
2022-09-16T19:10:51.589Z,98662.08
2022-09-16T19:13:25.161Z,98661.04
2022-09-16T19:16:01.632Z,98656.98
2022-09-16T19:18:34.437Z,98659.52
2022-09-16T19:21:07.042Z,98662.04
2022-09-16T19:23:39.727Z,98660.66
2022-09-16T19:26:19.628Z,98661.80
2022-09-16T19:28:53.262Z,98664.42
2022-09-16T19:31:25.671Z,98660.30
2022-09-16T19:34:00.901Z,98663.30
2022-09-16T19:36:34.543Z,98660.20
2022-09-16T19:39:10.186Z,98657.88
2022-09-16T19:41:44.130Z,98658.09
2022-09-16T19:44:18.558Z,98656.23
2022-09-16T19:46:53.622Z,98657.88
2022-09-16T19:49:28.241Z,98655.93
2022-09-16T19:52:00.085Z,98658.63
2022-09-16T19:54:32.214Z,98651.66
2022-09-16T19:57:07.117Z,98648.27
2022-09-16T19:59:39.350Z,98649.85
2022-09-16T20:02:14.948Z,98648.61
2022-09-16T20:04:48.934Z,98642.21
2022-09-16T20:07:21.157Z,98639.48
2022-09-16T20:09:53.532Z,98643.56
2022-09-16T20:12:27.966Z,98643.89
2022-09-16T20:15:00.942Z,98644.36
2022-09-16T20:17:33.076Z,98643.08
2022-09-16T20:20:06.366Z,98638.39
2022-09-16T20:22:38.720Z,98640.29
2022-09-16T20:25:23.042Z,98638.62
2022-09-16T20:27:54.511Z,98637.58
2022-09-16T20:30:26.580Z,98639.23
2022-09-16T20:32:58.690Z,98641.77
2022-09-16T20:35:32.816Z,98645.42
2022-09-16T20:38:05.047Z,98647.79
2022-09-16T20:40:39.870Z,98653.17
2022-09-16T20:43:15.384Z,98652.34
2022-09-16T20:45:47.937Z,98655.11
2022-09-16T20:48:20.382Z,98653.67
2022-09-16T20:50:52.530Z,98657.80
2022-09-16T20:53:24.626Z,98658.06
2022-09-16T20:56:12.494Z,98661.94
2022-09-16T20:58:45.469Z,98662.91
2022-09-16T21:01:23.006Z,98663.81
2022-09-16T21:03:56.955Z,98664.64
2022-09-16T21:06:30.174Z,98669.86
2022-09-16T21:09:08.545Z,98672.59
2022-09-16T21:11:43.805Z,98672.45
2022-09-16T21:14:18.277Z,98670.23
2022-09-16T21:16:52.631Z,98669.16
2022-09-16T21:19:25.311Z,98667.16
2022-09-16T21:21:58.774Z,98667.04
2022-09-16T21:24:32.265Z,98666.92
2022-09-16T21:27:05.661Z,98664.77
2022-09-16T21:29:39.226Z,98664.70
2022-09-16T21:32:11.388Z,98661.88
2022-09-16T21:34:45.836Z,98657.73
2022-09-16T21:37:18.058Z,98658.79
2022-09-16T21:39:50.791Z,98663.88
2022-09-16T21:42:24.335Z,98662.42
2022-09-16T21:44:58.201Z,98663.27
2022-09-16T21:47:30.596Z,98662.86
2022-09-16T21:50:04.617Z,98663.59
2022-09-16T21:52:39.235Z,98664.16
2022-09-16T21:55:11.966Z,98660.00
2022-09-16T21:57:47.849Z,98663.46
2022-09-16T22:00:22.361Z,98663.54
2022-09-16T22:02:57.423Z,98666.33
2022-09-16T22:05:31.261Z,98665.69
2022-09-16T22:08:06.545Z,98668.59
2022-09-16T22:10:39.711Z,98666.41
2022-09-16T22:13:14.501Z,98668.14
2022-09-16T22:15:51.801Z,98662.70
2022-09-16T22:18:28.092Z,98653.27
2022-09-16T22:21:05.121Z,98651.63
2022-09-16T22:23:38.476Z,98655.70
2022-09-16T22:26:15.046Z,98652.38
2022-09-16T22:28:50.087Z,98652.14
2022-09-16T22:31:27.242Z,98649.38
2022-09-16T22:34:01.593Z,98650.95
2022-09-16T22:36:37.108Z,98649.69
2022-09-16T22:39:13.140Z,98645.47
2022-09-16T22:41:45.533Z,98648.92
2022-09-16T22:44:17.859Z,98644.45
2022-09-16T22:46:50.937Z,98641.08
2022-09-16T22:49:38.200Z,98641.45
2022-09-16T22:52:10.515Z,98640.11
2022-09-16T22:54:45.277Z,98637.59
2022-09-16T22:57:16.269Z,98637.64
2022-09-16T22:59:49.787Z,98637.77
2022-09-16T23:02:22.361Z,98635.45
2022-09-16T23:04:55.856Z,98638.10
2022-09-16T23:07:30.694Z,98639.86
2022-09-16T23:10:08.531Z,98639.23
2022-09-16T23:12:48.148Z,98639.96
2022-09-16T23:15:23.194Z,98638.80
2022-09-16T23:17:55.513Z,98638.25
2022-09-16T23:20:29.018Z,98637.58
2022-09-16T23:23:04.126Z,98636.41
2022-09-16T23:25:41.529Z,98636.59
2022-09-16T23:28:14.956Z,98633.94
2022-09-16T23:30:49.871Z,98629.06
2022-09-16T23:33:24.740Z,98627.21
2022-09-16T23:35:57.207Z,98625.99
2022-09-16T23:38:41.287Z,98622.58
2022-09-16T23:41:22.027Z,98618.45
2022-09-16T23:43:56.799Z,98617.16
2022-09-16T23:46:31.338Z,98621.51
2022-09-16T23:49:05.948Z,98626.45
2022-09-16T23:51:45.699Z,98625.15
2022-09-16T23:54:20.581Z,98617.73
2022-09-16T23:56:56.283Z,98623.36
2022-09-16T23:59:30.551Z,98623.28
